createdAt,value
2023-02-18T00:01:17.306Z,95.12
2023-02-18T00:06:49.063Z,95.43
2023-02-18T00:12:20.726Z,95.12
2023-02-18T00:17:53.116Z,95.56
2023-02-18T00:23:24.367Z,95.64
2023-02-18T00:29:02.475Z,95.74
2023-02-18T00:34:34.177Z,95.35
2023-02-18T00:40:05.791Z,96.34
2023-02-18T00:45:37.538Z,96.37
2023-02-18T00:51:09.219Z,95.42
2023-02-18T00:56:40.957Z,94.57
2023-02-18T01:02:12.706Z,94.88
2023-02-18T01:07:44.432Z,95.07
2023-02-18T01:13:16.006Z,95.54
2023-02-18T01:18:48.057Z,95.77
2023-02-18T01:24:19.644Z,96.05
2023-02-18T01:29:55.721Z,96.57
2023-02-18T01:35:27.829Z,96.38
2023-02-18T01:40:59.206Z,96.89
2023-02-18T01:46:30.968Z,97.33
2023-02-18T01:52:02.698Z,97.77
2023-02-18T01:57:34.404Z,98.29
2023-02-18T02:03:06.169Z,97.71
2023-02-18T02:08:37.885Z,97.25
2023-02-18T02:14:09.564Z,97.54
2023-02-18T02:19:41.385Z,96.74
2023-02-18T02:25:13.006Z,96.74
2023-02-18T02:30:49.164Z,96.51
2023-02-18T02:36:20.882Z,96.75
2023-02-18T02:41:52.665Z,96.79
2023-02-18T02:47:24.345Z,96.64
2023-02-18T02:52:56.087Z,96.56
2023-02-18T02:58:27.686Z,96.68
2023-02-18T03:04:00.597Z,96.08
2023-02-18T03:09:31.135Z,96.19
2023-02-18T03:15:02.905Z,96.15
2023-02-18T03:20:34.624Z,95.88
2023-02-18T03:26:07.510Z,95.61
2023-02-18T03:31:44.697Z,95.23
2023-02-18T03:37:16.262Z,95.46
2023-02-18T03:42:47.987Z,95.15
2023-02-18T03:48:19.673Z,95.38
2023-02-18T03:53:51.483Z,95.3
2023-02-18T03:59:23.095Z,95.21
2023-02-18T04:04:54.878Z,95.65
2023-02-18T04:10:26.586Z,96.03
2023-02-18T04:15:58.197Z,96.24
2023-02-18T04:21:29.987Z,95.86
2023-02-18T04:27:01.920Z,95.66
2023-02-18T04:32:39.962Z,95.77
2023-02-18T04:38:11.677Z,95.06
2023-02-18T04:43:43.805Z,94.95
2023-02-18T04:49:15.251Z,94.23
2023-02-18T04:54:46.829Z,94.79
2023-02-18T05:00:18.622Z,94.99
2023-02-18T05:05:50.232Z,95.46
2023-02-18T05:11:22.052Z,95.11
2023-02-18T05:16:54.305Z,94.36
2023-02-18T05:22:25.561Z,94.24
2023-02-18T05:27:57.224Z,93.93
2023-02-18T05:33:33.488Z,94.41
2023-02-18T05:39:05.212Z,94.37
2023-02-18T05:44:36.683Z,94.83
2023-02-18T05:50:08.459Z,94.93
2023-02-18T05:55:40.207Z,94.6
2023-02-18T06:01:12.025Z,95.13
2023-02-18T06:06:43.615Z,95.62
2023-02-18T06:12:15.414Z,96.49
2023-02-18T06:17:47.271Z,96.12
2023-02-18T06:23:18.909Z,96.18
2023-02-18T06:28:50.909Z,96.34
2023-02-18T06:34:28.651Z,96.67
2023-02-18T06:40:00.542Z,96.82
2023-02-18T06:45:32.265Z,97.02
2023-02-18T06:51:04.013Z,97.24
2023-02-18T06:56:35.782Z,96.58
2023-02-18T07:02:07.780Z,96.19
2023-02-18T07:07:39.085Z,96.19
2023-02-18T07:13:10.846Z,95.96
2023-02-18T07:18:42.583Z,95.92
2023-02-18T07:24:14.327Z,96.0
2023-02-18T07:29:46.148Z,95.89
2023-02-18T07:35:24.313Z,95.16
2023-02-18T07:40:55.940Z,94.87
2023-02-18T07:46:27.550Z,94.46
2023-02-18T07:51:59.373Z,93.96
2023-02-18T07:57:31.336Z,93.2
2023-02-18T08:03:02.742Z,92.41
2023-02-18T08:08:37.378Z,92.01
2023-02-18T08:14:06.200Z,91.43
2023-02-18T08:19:37.895Z,90.52
2023-02-18T08:25:29.208Z,90.27
2023-02-18T08:30:41.732Z,89.86
2023-02-18T08:36:18.470Z,89.34
2023-02-18T08:41:49.351Z,89.08
2023-02-18T08:48:20.397Z,88.66
2023-02-18T08:52:52.724Z,88.59
2023-02-18T08:58:24.726Z,88.49
2023-02-18T09:03:56.714Z,88.8
2023-02-18T09:09:27.977Z,89.18
2023-02-18T09:15:00.668Z,89.33
2023-02-18T09:20:31.629Z,88.69
2023-02-18T09:26:03.267Z,89.47
2023-02-18T09:31:35.110Z,88.62
2023-02-18T09:37:11.093Z,87.99
2023-02-18T09:42:42.921Z,88.13
2023-02-18T09:48:14.519Z,88.1
2023-02-18T09:53:46.255Z,87.32
2023-02-18T09:59:18.077Z,86.89
2023-02-18T10:04:49.675Z,86.77
2023-02-18T10:10:21.738Z,87.43
2023-02-18T10:15:53.231Z,87.55
2023-02-18T10:21:24.928Z,86.07
2023-02-18T10:26:56.751Z,84.39
2023-02-18T10:32:28.510Z,83.51
2023-02-18T10:38:04.648Z,84.46
2023-02-18T10:43:36.483Z,84.15
2023-02-18T10:49:07.980Z,84.21
2023-02-18T10:54:39.771Z,84.76
2023-02-18T11:00:12.314Z,83.81
2023-02-18T11:06:26.918Z,83.29
2023-02-18T11:11:15.605Z,83.74
2023-02-18T11:16:47.517Z,81.84
2023-02-18T11:22:19.119Z,81.39
2023-02-18T11:27:50.827Z,80.08
2023-02-18T11:33:22.479Z,79.54
2023-02-18T11:39:00.577Z,79.46
2023-02-18T11:44:32.388Z,80.08
2023-02-18T11:50:04.231Z,79.73
2023-02-18T11:55:35.902Z,79.75
2023-02-18T12:01:08.276Z,78.5
2023-02-18T12:06:39.356Z,78.59
2023-02-18T12:12:11.305Z,79.83
2023-02-18T12:17:42.908Z,79.87
2023-02-18T12:23:14.628Z,80.62
2023-02-18T12:28:46.408Z,80.6
2023-02-18T12:34:18.143Z,81.13
2023-02-18T12:39:56.100Z,80.62
2023-02-18T12:45:28.602Z,81.69
2023-02-18T12:50:59.598Z,81.66
2023-02-18T12:56:31.249Z,82.21
2023-02-18T13:02:03.238Z,82.02
2023-02-18T13:07:35.165Z,81.72
2023-02-18T13:13:06.390Z,82.32
2023-02-18T13:18:38.131Z,82.37
2023-02-18T13:24:09.848Z,82.37
2023-02-18T13:29:41.682Z,82.65
2023-02-18T13:35:13.238Z,82.27
2023-02-18T13:40:51.712Z,82.29
2023-02-18T13:46:23.105Z,83.08
2023-02-18T13:51:55.006Z,82.09
2023-02-18T13:57:27.398Z,82.24
2023-02-18T14:02:58.613Z,82.06
2023-02-18T14:08:30.054Z,81.32
2023-02-18T14:14:01.851Z,81.64
2023-02-18T14:19:33.696Z,82.33
2023-02-18T14:25:05.265Z,81.92
2023-02-18T14:30:37.109Z,82.15
2023-02-18T14:36:08.720Z,83.52
2023-02-18T14:41:46.995Z,83.23
2023-02-18T14:47:19.059Z,83.18
2023-02-18T14:52:50.394Z,84.07
2023-02-18T14:58:22.186Z,83.35
2023-02-18T15:03:53.859Z,83.76
2023-02-18T15:09:25.607Z,85.05
2023-02-18T15:14:57.283Z,84.78
2023-02-18T15:20:30.009Z,85.15
2023-02-18T15:26:00.982Z,86.03
2023-02-18T15:31:32.565Z,86.31
2023-02-18T15:37:04.141Z,87.13
2023-02-18T15:42:42.368Z,87.54
2023-02-18T15:48:13.902Z,87.99
2023-02-18T15:53:45.670Z,88.46
2023-02-18T15:59:17.600Z,88.5
2023-02-18T16:04:49.212Z,88.32
2023-02-18T16:10:20.928Z,87.99
2023-02-18T16:15:52.745Z,88.52
2023-02-18T16:21:24.373Z,88.69
2023-02-18T16:26:56.573Z,88.59
2023-02-18T16:32:28.062Z,88.93
2023-02-18T16:37:59.639Z,88.52
2023-02-18T16:43:35.770Z,89.18
2023-02-18T16:49:07.861Z,89.89
2023-02-18T16:54:39.402Z,89.68
2023-02-18T17:00:10.990Z,89.68
2023-02-18T17:05:43.348Z,89.26
2023-02-18T17:11:14.595Z,90.12
2023-02-18T17:16:46.215Z,89.93
2023-02-18T17:22:17.922Z,90.22
2023-02-18T17:27:49.629Z,90.4
2023-02-18T17:33:21.305Z,90.92
2023-02-18T17:38:53.064Z,91.49
2023-02-18T17:44:29.298Z,91.35
2023-02-18T17:50:01.089Z,91.78
2023-02-18T17:55:32.661Z,91.75
2023-02-18T18:01:04.461Z,92.54
2023-02-18T18:06:36.050Z,92.68
2023-02-18T18:12:07.830Z,92.6
2023-02-18T18:17:39.896Z,92.24
2023-02-18T18:23:11.249Z,92.33
2023-02-18T18:28:42.956Z,92.53
2023-02-18T18:34:14.749Z,92.91
2023-02-18T18:39:46.496Z,93.26
2023-02-18T18:45:24.791Z,93.9
2023-02-18T18:50:56.203Z,93.96
2023-02-18T18:56:28.126Z,95.22
2023-02-18T19:01:59.794Z,95.5
2023-02-18T19:07:31.525Z,95.25
2023-02-18T19:13:03.267Z,95.12
2023-02-18T19:18:35.067Z,95.68
2023-02-18T19:24:06.780Z,96.62
2023-02-18T19:29:38.502Z,98.92
2023-02-18T19:35:10.316Z,100.0
2023-02-18T19:40:41.973Z,100.0
2023-02-18T19:46:18.224Z,100.0
2023-02-18T19:51:49.874Z,100.0
2023-02-18T19:57:22.316Z,100.0
2023-02-18T20:02:53.351Z,100.0
2023-02-18T20:08:24.997Z,100.0
2023-02-18T20:13:56.699Z,100.0
2023-02-18T20:19:31.807Z,100.0
2023-02-18T20:25:00.135Z,100.0
2023-02-18T20:30:31.968Z,100.0
2023-02-18T20:36:03.664Z,100.0
2023-02-18T20:41:35.248Z,100.0
2023-02-18T20:47:11.392Z,100.0
2023-02-18T20:52:43.245Z,100.0
2023-02-18T20:58:15.589Z,100.0
2023-02-18T21:03:46.604Z,100.0
2023-02-18T21:09:18.403Z,100.0
2023-02-18T21:14:50.152Z,100.0
2023-02-18T21:20:21.857Z,100.0
2023-02-18T21:25:53.791Z,100.0
2023-02-18T21:31:25.598Z,100.0
2023-02-18T21:36:57.103Z,100.0
2023-02-18T21:42:29.195Z,100.0
2023-02-18T21:48:04.922Z,100.0
2023-02-18T21:53:36.671Z,100.0
2023-02-18T21:59:08.269Z,100.0
2023-02-18T22:04:40.106Z,100.0
2023-02-18T22:10:11.795Z,100.0
2023-02-18T22:15:43.663Z,100.0
2023-02-18T22:21:15.172Z,100.0
2023-02-18T22:26:47.227Z,100.0
2023-02-18T22:32:18.921Z,100.0
2023-02-18T22:37:50.392Z,100.0
2023-02-18T22:43:22.197Z,100.0
2023-02-18T22:49:00.499Z,100.0
2023-02-18T22:54:32.174Z,100.0
2023-02-18T23:00:03.672Z,100.0
2023-02-18T23:05:36.268Z,100.0
2023-02-18T23:11:07.196Z,100.0
2023-02-18T23:16:39.024Z,100.0
2023-02-18T23:22:11.770Z,100.0
2023-02-18T23:27:42.272Z,100.0
2023-02-18T23:33:14.130Z,100.0
2023-02-18T23:38:46.482Z,100.0
2023-02-18T23:44:17.720Z,100.0
2023-02-18T23:49:55.906Z,100.0
2023-02-18T23:55:27.302Z,100.0
